Time;durP1;ratioP1;P1;durP2;ratioP2;P2;SDS_P1;SDS_P2;PMS_P1;PMS_P2;Temp;Humidity;BMP_temperature;BMP_pressure;BME280_temperature;BME280_humidity;BME280_pressure;Samples;Min_cycle;Max_cycle;Signal;HPM_P1;HPM_P2
2022/07/04 00:00:01;;;;;;;5.45;2.58;;;;;;;17.62;86.48;92907.03;5033143;28;20471;-75
2022/07/04 00:02:27;;;;;;;4.80;2.60;;;;;;;17.55;85.67;92899.59;5032775;28;20038;-76
2022/07/04 00:04:52;;;;;;;4.88;2.60;;;;;;;17.45;87.67;92900.72;5032960;28;20035;-75
2022/07/04 00:07:19;;;;;;;6.28;2.53;;;;;;;17.43;87.49;92899.50;5013452;28;20041;-75
2022/07/04 00:09:45;;;;;;;4.07;2.63;;;;;;;17.38;87.25;92897.81;5032879;28;20045;-75
2022/07/04 00:12:11;;;;;;;4.97;2.70;;;;;;;17.35;91.29;92892.38;5015264;28;20033;-75
2022/07/04 00:14:36;;;;;;;4.60;2.80;;;;;;;17.28;90.91;92906.09;5014497;28;20450;-75
2022/07/04 00:17:02;;;;;;;4.25;2.70;;;;;;;17.21;90.73;92905.81;5014057;28;20530;-75
2022/07/04 00:19:28;;;;;;;5.05;2.70;;;;;;;17.20;90.65;92898.94;5013969;28;20048;-76
2022/07/04 00:21:53;;;;;;;4.93;2.75;;;;;;;17.19;90.44;92881.53;5015181;28;20331;-76
2022/07/04 00:24:19;;;;;;;4.18;2.70;;;;;;;17.18;91.19;92880.78;5014480;28;20051;-76
2022/07/04 00:26:44;;;;;;;7.65;2.80;;;;;;;17.17;90.64;92873.91;5032587;28;20037;-76
2022/07/04 00:29:10;;;;;;;5.65;2.90;;;;;;;17.15;90.96;92876.09;5028254;28;20037;-75
2022/07/04 00:31:35;;;;;;;8.05;2.83;;;;;;;17.16;89.84;92867.09;5015281;28;20053;-75
2022/07/04 00:34:01;;;;;;;4.32;2.70;;;;;;;17.16;90.14;92872.38;5015085;28;20041;-75
2022/07/04 00:36:27;;;;;;;5.28;2.90;;;;;;;17.15;90.15;92876.09;4997303;28;20490;-75
2022/07/04 00:38:52;;;;;;;6.70;2.92;;;;;;;17.06;93.87;92892.00;5030390;28;20025;-75
2022/07/04 00:41:18;;;;;;;5.32;2.67;;;;;;;17.00;92.83;92889.81;5032546;28;20442;-75
2022/07/04 00:43:58;;;;;;;5.68;3.00;;;;;;;16.95;93.62;92887.38;5032247;28;20179;-75
2022/07/04 00:46:24;;;;;;;4.90;2.90;;;;;;;16.92;91.32;92904.63;5028620;28;20037;-75
2022/07/04 00:48:50;;;;;;;5.78;3.00;;;;;;;16.91;93.16;92899.66;5028944;28;20471;-75
2022/07/04 00:51:15;;;;;;;5.50;3.00;;;;;;;16.84;93.79;92897.50;5031055;28;20541;-75
2022/07/04 00:53:41;;;;;;;7.68;2.78;;;;;;;16.84;92.96;92903.59;5014320;28;20068;-75
2022/07/04 00:56:06;;;;;;;5.00;2.58;;;;;;;16.83;91.11;92891.44;5014254;28;20422;-75
2022/07/04 00:58:33;;;;;;;7.82;3.28;;;;;;;16.87;89.81;92888.19;5014171;28;20048;-75
2022/07/04 01:00:58;;;;;;;7.03;3.15;;;;;;;16.91;88.92;92897.00;5013379;28;20164;-75
2022/07/04 01:03:24;;;;;;;6.10;3.03;;;;;;;16.92;88.55;92898.59;5031188;28;20033;-75
2022/07/04 01:05:49;;;;;;;4.53;2.80;;;;;;;16.89;89.08;92907.91;5030554;28;20411;-75
2022/07/04 01:08:15;;;;;;;7.32;3.15;;;;;;;16.88;89.51;92903.72;5031825;28;20037;-76
2022/07/04 01:10:41;;;;;;;7.88;3.33;;;;;;;16.85;89.22;92889.25;4997049;28;20047;-75
2022/07/04 01:13:07;;;;;;;7.90;2.85;;;;;;;16.80;91.15;92884.16;5013903;28;20037;-75
2022/07/04 01:15:32;;;;;;;6.53;3.10;;;;;;;16.72;91.67;92881.47;5013707;28;20041;-75
2022/07/04 01:17:58;;;;;;;6.50;3.10;;;;;;;16.66;90.98;92875.56;5029572;28;20052;-75
2022/07/04 01:20:24;;;;;;;6.65;3.30;;;;;;;16.65;91.19;92868.75;4977549;28;20088;-75
2022/07/04 01:22:49;;;;;;;6.07;3.10;;;;;;;16.63;91.72;92863.00;4994412;28;20503;-75
2022/07/04 01:25:15;;;;;;;5.97;3.20;;;;;;;16.61;92.50;92859.88;5010270;28;20522;-75
2022/07/04 01:27:41;;;;;;;7.00;3.20;;;;;;;16.49;93.83;92859.75;5009224;28;20084;-76
2022/07/04 01:30:07;;;;;;;6.60;3.10;;;;;;;16.47;93.71;92859.31;5011993;28;20781;-75
2022/07/04 01:32:33;;;;;;;6.20;2.97;;;;;;;16.39;93.49;92856.34;5011417;28;20111;-75
2022/07/04 01:34:59;;;;;;;5.95;3.08;;;;;;;16.38;93.10;92844.22;5031432;28;20045;-75
2022/07/04 01:37:24;;;;;;;5.80;2.95;;;;;;;16.38;92.45;92854.78;5030927;28;20076;-75
2022/07/04 01:39:50;;;;;;;4.38;2.72;;;;;;;16.39;92.14;92845.00;5031306;28;20060;-75
2022/07/04 01:42:16;;;;;;;7.47;3.20;;;;;;;16.44;92.44;92834.28;5030238;28;20471;-75
2022/07/04 01:44:41;;;;;;;6.68;3.00;;;;;;;16.42;92.38;92834.59;5031291;28;20136;-76
2022/07/04 01:47:07;;;;;;;6.05;2.92;;;;;;;16.34;92.56;92824.78;5031164;28;20038;-75
2022/07/04 01:49:33;;;;;;;5.47;2.90;;;;;;;16.31;91.76;92837.88;5029675;28;20040;-75
2022/07/04 01:51:58;;;;;;;4.68;2.80;;;;;;;16.23;95.06;92824.38;5001419;28;20051;-75
2022/07/04 01:54:26;;;;;;;5.13;2.97;;;;;;;16.19;94.02;92817.38;5031084;28;20391;-75
2022/07/04 01:56:52;;;;;;;5.70;2.90;;;;;;;16.18;93.46;92824.50;5030993;28;20037;-75
2022/07/04 01:59:17;;;;;;;6.28;2.85;;;;;;;16.17;93.56;92824.84;5030575;28;20416;-75
2022/07/04 02:01:43;;;;;;;5.97;2.85;;;;;;;16.14;92.55;92823.56;5013034;28;20065;-76
2022/07/04 02:04:08;;;;;;;6.57;2.85;;;;;;;16.16;92.82;92828.56;5013232;28;20125;-75
2022/07/04 02:06:35;;;;;;;10.73;3.33;;;;;;;16.14;92.65;92828.09;5031137;28;20290;-76
2022/07/04 02:09:15;;;;;;;5.97;3.10;;;;;;;16.13;92.59;92822.03;5008023;28;20029;-76
2022/07/04 02:14:28;;;;;;;4.88;2.90;;;;;;;16.14;91.86;92828.09;5028637;28;20116;-75
2022/07/04 02:16:53;;;;;;;8.68;2.90;;;;;;;16.13;91.90;92839.75;4996354;28;20406;-75
2022/07/04 02:19:19;;;;;;;6.00;3.35;;;;;;;16.12;92.98;92846.09;5012886;28;20037;-76
2022/07/04 02:21:45;;;;;;;6.57;2.78;;;;;;;16.12;92.69;92854.03;5030356;28;20030;-75
2022/07/04 02:24:10;;;;;;;6.30;3.00;;;;;;;16.05;93.67;92854.50;5027494;28;20457;-75
2022/07/04 02:26:36;;;;;;;7.10;3.13;;;;;;;15.98;94.62;92854.94;4993535;28;20038;-75
2022/07/04 02:29:02;;;;;;;5.55;3.08;;;;;;;15.97;93.36;92861.34;5014531;28;20041;-75
2022/07/04 02:31:28;;;;;;;8.15;3.10;;;;;;;15.98;92.33;92856.81;5012482;28;20092;-75
2022/07/04 02:33:54;;;;;;;6.85;3.13;;;;;;;15.97;92.97;92848.13;5011427;28;20045;-76
2022/07/04 02:36:19;;;;;;;6.47;3.22;;;;;;;15.97;92.77;92845.50;5031069;28;20035;-75
2022/07/04 02:38:45;;;;;;;5.30;3.10;;;;;;;15.99;92.91;92850.47;5012962;28;20118;-76
2022/07/04 02:41:10;;;;;;;6.10;2.90;;;;;;;16.00;92.57;92855.41;5030326;28;20029;-76
2022/07/04 02:43:36;;;;;;;5.03;3.47;;;;;;;16.00;92.89;92850.13;5030661;28;20025;-75
2022/07/04 02:46:01;;;;;;;6.82;3.30;;;;;;;16.02;92.74;92858.53;5012003;28;20041;-75
2022/07/04 02:48:27;;;;;;;5.65;3.55;;;;;;;16.02;93.82;92863.03;5030445;28;20029;-76
2022/07/04 02:50:52;;;;;;;9.23;3.45;;;;;;;15.99;93.98;92861.81;5012593;28;20124;-75
2022/07/04 02:53:18;;;;;;;9.63;4.13;;;;;;;15.98;93.55;92862.88;4996558;28;20041;-75
2022/07/04 02:55:44;;;;;;;5.88;3.13;;;;;;;15.98;93.28;92857.59;4995873;28;20033;-76
2022/07/04 02:58:09;;;;;;;7.53;3.38;;;;;;;15.99;92.89;92861.03;5030475;28;20033;-76
2022/07/04 03:00:35;;;;;;;5.72;3.05;;;;;;;16.02;92.96;92855.88;5012352;28;20048;-75
2022/07/04 03:03:00;;;;;;;6.20;2.90;;;;;;;16.00;94.26;92859.94;5012181;28;20044;-75
2022/07/04 03:05:28;;;;;;;9.52;4.10;;;;;;;16.01;93.48;92864.13;5028457;28;20191;-75
2022/07/04 03:07:54;;;;;;;6.78;3.25;;;;;;;15.99;92.92;92864.44;5012591;28;20103;-75
2022/07/04 03:10:19;;;;;;;5.13;3.00;;;;;;;15.97;92.90;92856.06;4996383;28;20464;-75
2022/07/04 03:12:45;;;;;;;5.85;2.95;;;;;;;15.96;93.62;92857.16;5029969;28;20120;-76
2022/07/04 03:15:11;;;;;;;6.68;3.05;;;;;;;15.96;92.93;92849.22;5030273;28;20026;-76
2022/07/04 03:17:36;;;;;;;5.00;2.78;;;;;;;15.99;91.20;92848.59;5028369;28;20073;-76
2022/07/04 03:20:02;;;;;;;6.15;2.88;;;;;;;15.99;90.75;92851.25;5012659;28;20055;-76
2022/07/04 03:22:28;;;;;;;4.40;2.70;;;;;;;16.01;90.96;92843.78;5012046;28;20041;-76
2022/07/04 03:24:53;;;;;;;5.68;2.85;;;;;;;16.02;90.89;92855.88;5012469;28;20042;-76
2022/07/04 03:27:20;;;;;;;4.93;2.90;;;;;;;16.02;91.03;92855.88;5029712;28;20124;-75
2022/07/04 03:29:45;;;;;;;4.43;2.70;;;;;;;16.01;90.90;92857.00;5000558;28;20053;-76
2022/07/04 03:32:11;;;;;;;4.93;2.70;;;;;;;16.03;89.84;92849.53;5033360;28;20029;-76
2022/07/04 03:34:36;;;;;;;6.90;2.55;;;;;;;16.06;89.56;92850.00;5015679;28;20037;-76
2022/07/04 03:37:02;;;;;;;4.45;2.60;;;;;;;16.09;90.48;92846.72;5032243;28;20175;-76
2022/07/04 03:39:28;;;;;;;4.97;2.50;;;;;;;16.14;89.23;92843.94;5016202;28;20041;-76
2022/07/04 03:41:53;;;;;;;5.80;2.40;;;;;;;16.17;88.48;92848.59;4999195;28;20069;-76
2022/07/04 03:44:19;;;;;;;4.15;2.08;;;;;;;16.21;87.89;92841.59;5033088;28;20038;-76
2022/07/04 03:46:44;;;;;;;5.53;2.22;;;;;;;16.24;87.51;92851.56;5015453;28;20136;-76
2022/07/04 03:49:10;;;;;;;4.05;2.30;;;;;;;16.28;87.51;92859.59;5014569;28;20041;-76
2022/07/04 03:51:36;;;;;;;4.55;2.50;;;;;;;16.29;87.65;92846.09;5031382;28;20037;-76
2022/07/04 03:54:01;;;;;;;7.38;2.50;;;;;;;16.31;88.52;92854.50;5015301;28;20061;-76
2022/07/04 03:56:27;;;;;;;4.97;2.30;;;;;;;16.31;88.20;92849.22;5033116;28;20057;-76
2022/07/04 03:58:52;;;;;;;3.97;2.40;;;;;;;16.36;88.07;92854.31;5014519;28;20525;-76
2022/07/04 04:01:19;;;;;;;3.80;2.25;;;;;;;16.40;87.97;92860.53;5015294;28;20132;-76
2022/07/04 04:06:29;;;;;;;5.25;2.60;;;;;;;16.42;89.33;92860.25;5015062;28;20076;-76
2022/07/04 04:08:55;;;;;;;4.43;2.40;;;;;;;16.42;87.62;92866.28;5031195;28;20076;-76
2022/07/04 04:11:21;;;;;;;5.00;2.40;;;;;;;16.47;86.80;92867.22;5015221;28;20047;-77
2022/07/04 04:13:47;;;;;;;6.50;2.85;;;;;;;16.52;86.64;92864.41;5014625;28;20390;-76
2022/07/04 04:16:12;;;;;;;6.40;2.60;;;;;;;16.56;85.90;92870.63;5019863;28;20038;-76
2022/07/04 04:18:38;;;;;;;6.38;2.67;;;;;;;16.61;85.41;92873.88;5013023;28;20033;-76
2022/07/04 04:21:04;;;;;;;5.63;2.75;;;;;;;16.65;85.53;92877.44;5029045;28;20041;-76
2022/07/04 04:23:30;;;;;;;6.97;2.55;;;;;;;16.71;86.45;92877.31;5032457;28;20392;-76
2022/07/04 04:25:55;;;;;;;8.25;2.70;;;;;;;16.72;86.99;92874.31;5032176;28;20040;-76
2022/07/04 04:28:22;;;;;;;6.00;2.60;;;;;;;16.75;86.70;92868.44;5014755;28;20048;-76
2022/07/04 04:30:47;;;;;;;5.07;2.55;;;;;;;16.78;86.42;92870.44;5031615;28;20399;-76
2022/07/04 04:33:13;;;;;;;5.78;2.58;;;;;;;16.80;86.15;92875.44;5014657;28;20096;-76
2022/07/04 04:35:38;;;;;;;4.72;2.88;;;;;;;16.83;85.47;92872.16;5032237;28;20033;-76
2022/07/04 04:38:04;;;;;;;7.35;2.80;;;;;;;16.85;85.29;92873.38;4998446;28;20530;-76
2022/07/04 04:40:30;;;;;;;5.53;2.85;;;;;;;16.88;85.20;92871.22;4997023;28;20132;-76
2022/07/04 04:42:55;;;;;;;7.78;2.85;;;;;;;16.87;86.44;92875.72;5012639;28;20108;-76
2022/07/04 04:45:21;;;;;;;5.85;3.30;;;;;;;16.90;85.71;92875.09;5012174;28;20040;-76
2022/07/04 04:47:47;;;;;;;6.15;2.80;;;;;;;16.94;85.39;92875.25;5013428;28;20049;-76
2022/07/04 04:50:14;;;;;;;8.65;2.67;;;;;;;16.96;85.46;92879.13;5031557;28;20033;-76
2022/07/04 04:52:41;;;;;;;7.07;2.47;;;;;;;17.01;84.21;92868.38;5014814;28;20026;-76
2022/07/04 04:55:07;;;;;;;4.70;2.72;;;;;;;17.07;84.48;92863.69;5031107;28;20435;-76
2022/07/04 04:57:33;;;;;;;6.78;2.88;;;;;;;17.17;84.97;92873.91;5029608;28;20030;-76
2022/07/04 04:59:58;;;;;;;7.32;2.70;;;;;;;17.31;86.40;92873.69;4996124;28;20487;-76
2022/07/04 05:02:24;;;;;;;7.03;2.85;;;;;;;17.47;85.87;92873.94;5035168;28;20041;-75
2022/07/04 05:04:49;;;;;;;5.45;2.60;;;;;;;17.62;84.74;92873.38;5024515;28;20026;-77
2022/07/04 05:07:15;;;;;;;5.10;2.70;;;;;;;17.78;84.16;92875.50;5010216;28;20517;-78
2022/07/04 05:09:41;;;;;;;5.35;2.80;;;;;;;17.92;84.42;92873.41;5027967;28;20037;-78
2022/07/04 05:12:07;;;;;;;5.40;2.55;;;;;;;18.08;84.14;92879.69;5025843;28;20038;-77
2022/07/04 05:14:32;;;;;;;5.95;2.78;;;;;;;18.19;83.74;92866.03;5028590;28;20033;-80
2022/07/04 05:16:58;;;;;;;6.70;2.78;;;;;;;18.24;83.95;92865.88;5020245;28;20030;-81
2022/07/04 05:19:23;;;;;;;5.50;2.90;;;;;;;18.27;83.47;92859.91;5032641;28;20124;-81
2022/07/04 05:21:49;;;;;;;6.75;3.00;;;;;;;18.33;83.31;92855.97;5033792;28;20849;-81
2022/07/04 05:24:16;;;;;;;5.60;2.80;;;;;;;18.34;84.04;92857.50;5002121;28;20087;-82
2022/07/04 05:26:42;;;;;;;8.55;3.15;;;;;;;18.35;84.75;92850.31;5027652;28;20056;-80
2022/07/04 05:29:07;;;;;;;8.05;3.10;;;;;;;18.36;85.23;92857.19;5033725;28;20041;-80
2022/07/04 05:31:33;;;;;;;5.45;3.25;;;;;;;18.37;85.45;92856.84;5027431;28;20033;-81
2022/07/04 05:33:59;;;;;;;7.68;3.20;;;;;;;18.40;83.44;92861.50;5022880;28;20129;-80
2022/07/04 05:36:25;;;;;;;5.30;2.95;;;;;;;18.45;83.92;92855.22;5030578;28;20048;-81
2022/07/04 05:38:51;;;;;;;5.38;2.90;;;;;;;18.49;84.02;92856.91;5014001;28;20037;-81
2022/07/04 05:41:17;;;;;;;5.22;3.20;;;;;;;18.52;83.65;92855.47;4995691;28;20053;-81
2022/07/04 05:43:43;;;;;;;8.10;3.42;;;;;;;18.59;83.42;92863.66;5030016;28;20246;-81
2022/07/04 05:46:09;;;;;;;9.30;3.33;;;;;;;18.67;84.38;92856.75;5044423;28;20082;-81
2022/07/04 05:48:35;;;;;;;7.25;3.53;;;;;;;18.73;85.93;92866.03;5023446;28;20049;-80
2022/07/04 05:51:02;;;;;;;6.43;3.60;;;;;;;18.79;85.52;92871.94;5033113;28;20057;-80
2022/07/04 05:53:27;;;;;;;11.60;4.03;;;;;;;18.83;85.18;92870.97;5016501;28;20021;-80
2022/07/04 05:55:53;;;;;;;8.13;3.72;;;;;;;18.88;85.01;92877.94;5015226;28;20050;-80
2022/07/04 05:58:18;;;;;;;6.72;3.72;;;;;;;18.92;84.98;92871.66;5054886;28;20033;-80
2022/07/04 06:00:44;;;;;;;8.77;3.60;;;;;;;18.97;85.04;92875.19;5020239;28;20056;-80
2022/07/04 06:03:09;;;;;;;5.07;2.90;;;;;;;19.00;83.67;92875.28;5033256;28;20056;-80
2022/07/04 06:05:35;;;;;;;6.20;2.78;;;;;;;19.03;81.40;92865.94;5014543;28;20376;-81
2022/07/04 06:08:01;;;;;;;4.65;2.88;;;;;;;19.07;80.11;92870.25;5030837;28;20334;-81
2022/07/04 06:10:27;;;;;;;5.85;3.10;;;;;;;19.11;78.86;92859.72;5032280;28;20449;-80
2022/07/04 06:12:53;;;;;;;8.60;2.88;;;;;;;19.16;78.28;92843.59;5016186;28;20116;-81
2022/07/04 06:15:18;;;;;;;6.90;3.00;;;;;;;19.21;78.16;92840.75;5032545;28;20029;-81
2022/07/04 06:17:44;;;;;;;6.82;3.42;;;;;;;19.29;80.20;92839.84;5015090;28;20052;-81
2022/07/04 06:20:10;;;;;;;6.63;3.40;;;;;;;19.33;80.45;92834.66;5014862;28;20624;-80
2022/07/04 06:22:43;;;;;;;7.22;3.15;;;;;;;19.35;81.04;92821.84;5033136;28;20044;-81
2022/07/04 06:25:14;;;;;;;6.97;3.28;;;;;;;19.34;85.77;92818.41;5015824;28;20519;-80
2022/07/04 06:27:40;;;;;;;6.32;3.05;;;;;;;19.33;86.66;92810.78;5014638;28;20172;-80
2022/07/04 06:30:07;;;;;;;9.05;3.58;;;;;;;19.32;86.23;92802.03;5015655;28;20395;-81
2022/07/04 06:32:45;;;;;;;8.27;3.30;;;;;;;19.34;86.96;92788.41;5032806;28;20056;-81
2022/07/04 06:37:56;;;;;;;8.70;3.33;;;;;;;19.43;86.46;92796.28;5002869;28;20046;-77
2022/07/04 06:40:22;;;;;;;8.98;3.60;;;;;;;19.48;87.70;92802.13;5022154;28;20029;-77
2022/07/04 06:42:49;;;;;;;6.35;3.30;;;;;;;19.52;86.54;92799.56;5030849;28;20030;-77
2022/07/04 06:45:14;;;;;;;5.82;3.35;;;;;;;19.54;84.87;92806.13;5012294;28;20037;-77
2022/07/04 06:47:40;;;;;;;8.02;3.03;;;;;;;19.56;84.25;92827.78;5013121;28;20056;-77
2022/07/04 06:50:06;;;;;;;7.03;2.80;;;;;;;19.52;83.42;92842.84;5013202;28;20073;-76
2022/07/04 06:52:32;;;;;;;6.30;2.80;;;;;;;19.43;79.24;92870.59;5030825;28;20057;-76
2022/07/04 06:54:57;;;;;;;9.32;2.90;;;;;;;19.48;72.82;92889.75;5030602;28;20029;-77
2022/07/04 06:57:23;;;;;;;4.70;2.67;;;;;;;19.39;74.40;92928.91;5011786;28;20511;-77
2022/07/04 06:59:48;;;;;;;6.38;2.70;;;;;;;19.04;78.15;92984.97;5029845;28;20079;-77
2022/07/04 07:02:14;;;;;;;6.30;3.17;;;;;;;18.75;79.30;93001.72;5031047;28;20084;-77
2022/07/04 07:04:41;;;;;;;6.85;2.90;;;;;;;18.56;79.40;93025.28;5016977;28;20065;-77
2022/07/04 07:07:06;;;;;;;5.10;3.10;;;;;;;18.48;78.77;93018.91;5034397;28;20029;-77
2022/07/04 07:09:32;;;;;;;6.00;3.10;;;;;;;18.49;76.82;93010.66;5016137;28;20043;-77
2022/07/04 07:11:57;;;;;;;12.23;3.10;;;;;;;18.56;76.59;93004.06;5034255;28;20064;-77
2022/07/04 07:14:23;;;;;;;9.43;3.22;;;;;;;18.52;75.83;92983.50;5016411;28;20045;-76
2022/07/04 07:16:48;;;;;;;4.25;2.80;;;;;;;18.59;73.33;92977.66;5016565;28;20191;-77
2022/07/04 07:19:14;;;;;;;6.75;2.30;;;;;;;18.68;71.61;92969.66;5016726;28;20041;-76
2022/07/04 07:21:39;;;;;;;3.58;2.05;;;;;;;18.77;70.18;92961.63;5032661;28;20124;-77
2022/07/04 07:24:05;;;;;;;5.63;2.00;;;;;;;18.78;69.47;92936.69;5016094;28;20182;-76
2022/07/04 07:26:30;;;;;;;8.23;1.98;;;;;;;18.76;69.05;92917.66;5034149;28;20030;-77
2022/07/04 07:28:56;;;;;;;3.72;1.80;;;;;;;18.75;68.55;92910.78;5016622;28;20037;-76
2022/07/04 07:31:21;;;;;;;5.28;1.80;;;;;;;18.65;68.11;92901.38;5033509;28;20124;-77
2022/07/04 07:33:47;;;;;;;4.22;1.60;;;;;;;18.60;68.29;92914.81;5033847;28;20041;-77
2022/07/04 07:36:13;;;;;;;5.03;2.10;;;;;;;18.55;68.84;92928.28;5016003;28;20045;-77
2022/07/04 07:38:38;;;;;;;5.78;2.22;;;;;;;18.55;69.08;92928.28;5016046;28;20053;-77
2022/07/04 07:41:08;;;;;;;4.65;2.00;;;;;;;18.53;69.83;92941.88;5015550;28;20036;-77
2022/07/04 07:43:33;;;;;;;3.88;2.00;;;;;;;18.87;69.27;92954.09;5033441;28;20411;-76
2022/07/04 07:45:59;;;;;;;6.07;2.15;;;;;;;18.13;76.94;92976.75;5015530;28;20048;-76
2022/07/04 07:48:24;;;;;;;6.80;2.30;;;;;;;17.65;78.47;92983.94;5033574;28;20513;-76
2022/07/04 07:50:50;;;;;;;7.72;2.65;;;;;;;17.54;77.88;92963.44;5033890;28;20536;-76
2022/07/04 07:53:16;;;;;;;4.57;2.35;;;;;;;17.49;79.15;92948.50;5034591;28;20591;-76
2022/07/04 07:55:41;;;;;;;7.93;2.25;;;;;;;17.51;80.20;92941.03;5034926;28;20048;-76
2022/07/04 07:58:07;;;;;;;6.07;2.40;;;;;;;17.55;80.19;92957.81;5015565;28;20041;-77
2022/07/04 08:00:32;;;;;;;7.07;2.53;;;;;;;17.55;80.55;92979.00;5015372;28;20037;-77
2022/07/04 08:05:42;;;;;;;6.60;2.70;;;;;;;17.54;86.56;93014.50;5001477;28;20075;-77
2022/07/04 08:08:09;;;;;;;9.18;2.55;;;;;;;17.59;82.40;93034.75;5033052;28;20116;-77
2022/07/04 08:10:37;;;;;;;7.47;2.60;;;;;;;17.45;84.28;93019.03;5033480;28;20132;-77
2022/07/04 08:13:04;;;;;;;13.60;2.80;;;;;;;17.33;85.15;93008.31;4998579;28;20025;-77
2022/07/04 08:15:29;;;;;;;6.53;3.00;;;;;;;17.27;85.99;93011.16;5033036;28;20407;-77
2022/07/04 08:17:55;;;;;;;10.23;3.38;;;;;;;17.21;91.55;93033.56;5033886;28;20044;-77
2022/07/04 08:20:20;;;;;;;6.85;3.33;;;;;;;17.20;91.81;93042.59;5033344;28;20040;-77
2022/07/04 08:22:46;;;;;;;5.93;2.90;;;;;;;17.22;90.64;93036.97;5014148;28;20053;-77
2022/07/04 08:25:14;;;;;;;5.57;2.80;;;;;;;17.23;90.50;93004.94;5033185;28;20569;-77
2022/07/04 08:27:39;;;;;;;4.70;2.65;;;;;;;17.25;89.79;92996.69;4999666;28;20029;-77
2022/07/04 08:30:05;;;;;;;5.68;2.80;;;;;;;17.26;90.83;92992.94;5015318;28;20049;-77
2022/07/04 08:32:31;;;;;;;7.30;2.60;;;;;;;17.25;91.15;92999.34;5032439;28;20042;-76
2022/07/04 08:34:57;;;;;;;6.47;2.40;;;;;;;17.26;91.94;92988.41;5030796;28;20426;-77
2022/07/04 08:37:23;;;;;;;6.68;2.50;;;;;;;17.28;90.15;92980.94;4982394;28;20042;-77
2022/07/04 08:39:49;;;;;;;5.75;2.60;;;;;;;17.22;86.50;92976.91;5032457;28;20063;-76
2022/07/04 08:42:21;;;;;;;5.13;2.38;;;;;;;17.25;86.39;92971.00;4998523;28;20064;-76
2022/07/04 08:44:49;;;;;;;8.60;2.67;;;;;;;17.05;87.38;92977.72;5030659;28;20033;-77
2022/07/04 08:47:20;;;;;;;8.13;2.35;;;;;;;17.15;86.37;92981.91;5014576;28;20448;-76
2022/07/04 08:49:55;;;;;;;3.65;2.00;;;;;;;16.99;86.10;92967.63;4998276;28;20050;-77
2022/07/04 08:52:35;;;;;;;6.82;2.00;;;;;;;17.08;83.37;92978.19;5031992;28;20033;-77
2022/07/04 09:00:30;;;;;;;3.58;1.85;;;;;;;17.23;82.85;92975.81;5027647;28;20041;-77
2022/07/04 09:02:58;;;;;;;4.65;1.85;;;;;;;17.42;79.79;92979.97;4997653;28;20068;-76
2022/07/04 09:05:24;;;;;;;5.32;1.70;;;;;;;17.52;77.73;92982.28;5013809;28;20270;-76
2022/07/04 09:07:50;;;;;;;8.88;2.28;;;;;;;17.60;78.58;92980.69;5014210;28;20109;-76
2022/07/04 09:10:16;;;;;;;3.70;1.90;;;;;;;17.62;80.90;92986.44;5032316;28;20460;-77
2022/07/04 09:12:42;;;;;;;4.63;2.22;;;;;;;17.99;83.33;92982.28;5031712;28;20042;-76
2022/07/04 09:15:08;;;;;;;6.85;2.58;;;;;;;17.92;85.07;92966.09;5032198;28;20111;-77
2022/07/04 09:17:33;;;;;;;9.00;3.13;;;;;;;17.84;89.30;92966.94;5013886;28;20049;-76
2022/07/04 09:20:20;;;;;;;18.70;3.50;;;;;;;18.01;89.93;92964.19;5031660;28;20099;-76
2022/07/04 09:22:49;;;;;;;8.32;3.00;;;;;;;18.24;87.44;92955.94;5013887;28;20088;-77
2022/07/04 09:25:15;;;;;;;11.23;3.25;;;;;;;18.64;88.88;92953.63;5031129;28;20487;-77
2022/07/04 09:27:50;;;;;;;5.97;2.63;;;;;;;18.80;84.56;92955.69;5027490;28;20183;-77
2022/07/04 09:30:18;;;;;;;4.78;2.65;;;;;;;19.05;83.64;92945.94;5013650;28;20454;-76
2022/07/04 09:33:00;;;;;;;6.28;2.80;;;;;;;19.26;82.61;92940.59;5014149;28;20127;-77
2022/07/04 09:35:27;;;;;;;4.97;2.50;;;;;;;19.57;80.09;92948.06;5031545;28;20116;-77
2022/07/04 09:37:56;;;;;;;4.60;2.58;;;;;;;19.84;80.00;92937.94;5031107;28;20033;-77
2022/07/04 09:40:31;;;;;;;8.05;2.35;;;;;;;20.26;78.91;92937.66;5013354;28;20043;-77
2022/07/04 09:42:59;;;;;;;5.35;2.90;;;;;;;20.34;83.48;92928.78;5031335;28;20160;-77
2022/07/04 09:45:26;;;;;;;5.13;2.30;;;;;;;20.36;83.05;92931.88;5031361;28;20176;-77
2022/07/04 09:47:57;;;;;;;5.75;2.45;;;;;;;20.47;80.86;92938.28;4997833;28;20114;-76
2022/07/04 09:50:25;;;;;;;9.75;2.75;;;;;;;20.24;81.16;92940.66;5030126;28;20041;-77
2022/07/04 09:52:55;;;;;;;5.28;3.28;;;;;;;20.29;80.55;92937.00;5031122;28;20438;-77
2022/07/04 09:55:23;;;;;;;6.78;2.72;;;;;;;20.40;81.33;92932.75;5029838;28;20029;-77
2022/07/04 09:57:49;;;;;;;6.53;2.50;;;;;;;20.52;77.55;92923.97;5025873;28;20486;-78
2022/07/04 10:00:21;;;;;;;4.18;2.40;;;;;;;20.74;76.68;92920.06;5031150;28;20113;-77
2022/07/04 10:02:47;;;;;;;5.13;2.47;;;;;;;20.75;78.18;92929.56;5028627;28;20044;-77
2022/07/04 10:05:19;;;;;;;5.28;2.65;;;;;;;20.82;76.62;92927.09;5032585;28;20025;-77
2022/07/04 10:07:47;;;;;;;8.02;2.92;;;;;;;20.78;75.17;92939.53;5015977;28;20099;-77
2022/07/04 10:10:34;;;;;;;5.75;2.40;;;;;;;20.98;75.84;92935.91;5028676;28;20033;-78
2022/07/04 10:13:08;;;;;;;6.68;2.20;;;;;;;21.21;73.56;92927.38;5035448;28;20065;-78
2022/07/04 10:15:37;;;;;;;6.32;2.20;;;;;;;21.38;71.39;92929.69;5031623;28;20037;-77
2022/07/04 10:18:04;;;;;;;4.72;1.92;;;;;;;21.36;73.26;92926.59;5032510;28;20033;-77
2022/07/04 10:20:30;;;;;;;7.75;2.40;;;;;;;21.44;68.77;92918.84;5033565;28;20036;-77
2022/07/04 10:22:57;;;;;;;3.72;2.33;;;;;;;21.32;72.43;92922.28;5013648;28;20049;-77
2022/07/04 10:25:22;;;;;;;6.25;2.63;;;;;;;21.32;71.50;92925.75;5032159;28;20029;-77
2022/07/04 10:27:51;;;;;;;5.85;2.60;;;;;;;21.42;70.06;92921.84;5014419;28;20052;-77
2022/07/04 10:30:23;;;;;;;8.68;2.60;;;;;;;21.36;72.96;92920.50;5032190;28;20037;-78
2022/07/04 10:32:51;;;;;;;6.35;2.30;;;;;;;21.47;70.87;92918.13;5033982;28;20057;-78
2022/07/04 10:35:16;;;;;;;5.85;2.38;;;;;;;21.64;67.40;92912.47;5015885;28;20065;-78
2022/07/04 10:38:07;;;;;;;3.95;2.20;;;;;;;21.88;69.04;92911.50;5005904;28;20048;-77
2022/07/04 10:40:49;;;;;;;4.78;2.40;;;;;;;22.09;68.35;92921.88;5011031;28;20037;-78
2022/07/04 10:46:16;;;;;;;6.85;2.67;;;;;;;22.30;67.10;92913.59;4996762;28;20073;-78
2022/07/04 10:49:13;;;;;;;7.20;2.65;;;;;;;22.75;69.32;92914.13;4997011;28;20069;-78
2022/07/04 10:51:54;;;;;;;7.07;2.33;;;;;;;22.78;66.32;92905.41;4982333;28;20426;-78
2022/07/04 10:54:21;;;;;;;3.88;2.28;;;;;;;22.87;64.90;92905.94;5012159;28;20030;-78
2022/07/04 10:56:55;;;;;;;7.72;2.22;;;;;;;22.73;64.74;92911.78;5025004;28;20034;-77
2022/07/04 10:59:20;;;;;;;6.18;2.40;;;;;;;22.88;70.21;92904.84;5026038;28;20030;-77
2022/07/04 11:01:48;;;;;;;5.15;2.72;;;;;;;23.20;66.68;92896.66;5015359;28;20018;-77
2022/07/04 11:04:53;;;;;;;6.90;2.55;;;;;;;23.33;67.87;92895.38;5014720;28;20049;-78
2022/07/04 11:07:35;;;;;;;6.93;2.53;;;;;;;23.09;65.18;92891.13;5000693;28;20045;-78
2022/07/04 11:10:13;;;;;;;7.03;2.38;;;;;;;23.19;69.13;92873.75;5016382;28;20460;-78
2022/07/04 11:12:53;;;;;;;6.65;2.53;;;;;;;23.11;66.45;92872.09;5024119;28;20091;-79
2022/07/04 11:15:28;;;;;;;4.65;2.50;;;;;;;23.19;67.09;92868.41;5021031;28;20108;-78
2022/07/04 11:18:08;;;;;;;6.20;2.30;;;;;;;23.22;63.63;92867.72;5000420;28;20049;-78
2022/07/04 11:20:36;;;;;;;7.22;2.53;;;;;;;23.27;64.30;92878.09;4999518;28;20038;-78
2022/07/04 11:23:05;;;;;;;5.50;2.67;;;;;;;23.32;66.59;92877.03;5017821;28;20049;-78
2022/07/04 11:25:31;;;;;;;7.00;2.40;;;;;;;23.67;64.45;92876.84;5017343;28;20499;-78
2022/07/04 11:27:57;;;;;;;4.57;2.20;;;;;;;23.66;62.86;92880.63;5018325;28;20038;-78
2022/07/04 11:30:22;;;;;;;9.30;2.53;;;;;;;23.80;63.64;92875.53;5015270;28;20029;-78
2022/07/04 11:32:48;;;;;;;3.75;2.13;;;;;;;24.06;62.89;92865.97;5036109;28;20062;-79
2022/07/04 11:35:13;;;;;;;4.78;2.42;;;;;;;24.10;64.26;92867.56;5025830;28;20081;-78
2022/07/04 11:37:44;;;;;;;7.00;2.30;;;;;;;23.98;61.21;92864.31;5014992;28;20045;-78
2022/07/04 11:45:53;;;;;;;6.10;2.53;;;;;;;24.06;64.63;92852.59;5029075;28;20029;-78
2022/07/04 11:48:25;;;;;;;5.57;2.50;;;;;;;23.91;61.19;92838.25;5007659;28;20610;-77
2022/07/04 11:50:51;;;;;;;4.13;2.20;;;;;;;24.21;61.29;92834.84;5032222;28;20073;-77
2022/07/04 11:53:18;;;;;;;5.30;2.53;;;;;;;24.44;63.02;92832.06;5028002;28;20029;-77
2022/07/04 11:56:00;;;;;;;4.10;2.25;;;;;;;24.60;59.48;92829.97;4979843;28;20038;-77
2022/07/04 11:58:42;;;;;;;6.78;2.50;;;;;;;24.57;59.63;92830.72;5013225;28;20523;-78